Time;durP1;ratioP1;P1;durP2;ratioP2;P2;SDS_P1;SDS_P2;PMS_P1;PMS_P2;Temp;Humidity;BMP_temperature;BMP_pressure;BME280_temperature;BME280_humidity;BME280_pressure;Samples;Min_cycle;Max_cycle;Signal;HPM_P1;HPM_P2
2020/12/30 00:01:00;;;;;;;8.55;6.00;;;;;;;2.03;100.00;99155.31;1808663;79;20908;-78
2020/12/30 00:03:28;;;;;;;9.68;5.47;;;;;;;2.04;100.00;99167.22;1808628;78;21370;-77
2020/12/30 00:05:55;;;;;;;7.60;4.90;;;;;;;2.08;100.00;99170.20;1808536;79;21015;-77
2020/12/30 00:08:22;;;;;;;8.38;4.78;;;;;;;2.11;100.00;99169.67;1808627;79;20920;-77
2020/12/30 00:10:52;;;;;;;6.75;4.67;;;;;;;2.10;100.00;99162.09;1808429;78;20996;-77
2020/12/30 00:13:21;;;;;;;6.05;4.30;;;;;;;2.13;100.00;99153.97;1808628;79;20936;-77
2020/12/30 00:15:49;;;;;;;6.72;4.03;;;;;;;2.15;100.00;99158.57;1779342;79;22077;-78
2020/12/30 00:18:17;;;;;;;6.85;4.53;;;;;;;2.17;100.00;99155.05;1808576;79;20947;-82
2020/12/30 00:20:45;;;;;;;6.35;4.42;;;;;;;2.19;100.00;99142.87;1826935;76;21098;-79
2020/12/30 00:23:12;;;;;;;6.10;4.00;;;;;;;2.22;100.00;99137.45;1775021;80;21743;-77
2020/12/30 00:25:40;;;;;;;6.78;4.42;;;;;;;2.25;100.00;99136.37;1775073;80;20940;-77
2020/12/30 00:28:08;;;;;;;5.45;4.00;;;;;;;2.27;100.00;99138.81;1775019;80;21364;-77
2020/12/30 00:30:35;;;;;;;10.25;3.55;;;;;;;2.29;100.00;99140.16;1775026;80;20992;-77
2020/12/30 00:33:03;;;;;;;9.50;4.00;;;;;;;2.31;100.00;99142.02;1775051;80;21056;-78
2020/12/30 00:35:31;;;;;;;6.58;4.05;;;;;;;2.32;100.00;99142.30;1775034;80;20921;-79
2020/12/30 00:37:58;;;;;;;6.62;4.67;;;;;;;2.36;100.00;99158.01;1775052;80;21463;-76
2020/12/30 00:40:26;;;;;;;6.72;4.37;;;;;;;2.37;100.00;99168.58;1775065;80;23572;-79
2020/12/30 00:42:53;;;;;;;6.95;4.33;;;;;;;2.40;100.00;99175.34;1775026;80;21035;-79
2020/12/30 00:45:22;;;;;;;6.97;4.65;;;;;;;2.44;100.00;99177.24;1774906;80;21502;-80
2020/12/30 00:47:49;;;;;;;7.50;4.85;;;;;;;2.45;100.00;99177.52;1775113;80;21478;-77
2020/12/30 00:50:17;;;;;;;5.97;3.92;;;;;;;2.46;100.00;99175.07;1775104;80;21008;-83
2020/12/30 00:52:44;;;;;;;7.45;4.62;;;;;;;2.51;100.00;99166.95;1775077;80;22081;-81
2020/12/30 00:55:13;;;;;;;7.12;4.62;;;;;;;2.54;100.00;99165.59;1775006;80;20905;-82
2020/12/30 00:57:54;;;;;;;9.43;5.05;;;;;;;2.61;100.00;99166.94;1888842;76;22746;-83
2020/12/30 01:00:22;;;;;;;8.73;5.50;;;;;;;2.60;100.00;99162.60;1775380;80;20954;-80
2020/12/30 01:02:54;;;;;;;9.03;5.65;;;;;;;2.63;100.00;99155.83;1824459;77;25215;-80
2020/12/30 01:05:22;;;;;;;8.65;5.37;;;;;;;2.65;100.00;99155.82;1849902;77;20926;-80
2020/12/30 01:07:49;;;;;;;9.20;6.25;;;;;;;2.68;100.00;99165.30;1849930;77;20970;-75
2020/12/30 01:10:18;;;;;;;8.90;5.75;;;;;;;2.71;100.00;99164.76;1849963;77;21013;-80
2020/12/30 01:12:46;;;;;;;9.58;6.03;;;;;;;2.72;100.00;99162.86;1849995;77;21033;-80
2020/12/30 01:15:14;;;;;;;9.58;6.28;;;;;;;2.76;100.00;99160.69;1849972;77;21176;-76
2020/12/30 01:17:42;;;;;;;9.05;6.33;;;;;;;2.78;100.00;99164.48;1849863;77;20945;-76
2020/12/30 01:20:09;;;;;;;14.15;7.53;;;;;;;2.78;100.00;99163.94;1849961;77;20989;-77
2020/12/30 01:22:37;;;;;;;11.57;7.25;;;;;;;2.82;100.00;99164.20;1823332;77;21823;-76
2020/12/30 01:25:04;;;;;;;9.78;6.75;;;;;;;2.84;100.00;99163.38;1816646;79;20875;-76
2020/12/30 01:27:32;;;;;;;9.48;6.50;;;;;;;2.86;100.00;99166.09;1816622;79;21180;-74
2020/12/30 01:30:00;;;;;;;9.90;6.83;;;;;;;2.91;100.00;99154.39;1816585;79;21013;-75
2020/12/30 01:32:28;;;;;;;10.00;6.33;;;;;;;2.96;100.00;99148.95;1816575;79;20977;-75
2020/12/30 01:34:56;;;;;;;10.08;6.42;;;;;;;3.02;100.00;99151.11;1816568;79;20919;-76
2020/12/30 01:37:25;;;;;;;9.38;6.22;;;;;;;3.07;100.00;99146.48;1816594;79;20879;-75
2020/12/30 01:39:52;;;;;;;10.25;6.47;;;;;;;3.13;100.00;99137.24;1816729;79;22261;-75
2020/12/30 01:42:20;;;;;;;7.40;5.60;;;;;;;3.19;100.00;99136.68;1816571;79;20990;-76
2020/12/30 01:44:47;;;;;;;8.03;5.20;;;;;;;3.26;100.00;99132.58;1816578;79;21001;-76
2020/12/30 01:47:17;;;;;;;7.00;5.20;;;;;;;3.31;100.00;99137.98;1816532;79;20922;-77
2020/12/30 01:49:44;;;;;;;6.58;4.72;;;;;;;3.37;100.00;99145.56;1816652;79;20997;-76
2020/12/30 01:52:12;;;;;;;7.95;5.35;;;;;;;3.41;100.00;99148.53;1816685;79;23344;-80
2020/12/30 01:54:40;;;;;;;7.50;4.78;;;;;;;3.46;100.00;99160.72;1787545;79;20982;-78
2020/12/30 01:57:07;;;;;;;11.20;4.67;;;;;;;3.49;100.00;99169.09;1775301;80;21555;-77
2020/12/30 01:59:35;;;;;;;7.10;5.12;;;;;;;3.53;100.00;99169.34;1792493;80;20929;-80
2020/12/30 02:02:07;;;;;;;6.90;4.80;;;;;;;3.54;100.00;99160.92;1792495;80;20894;-79
2020/12/30 02:04:50;;;;;;;8.90;5.08;;;;;;;3.57;100.00;99163.63;1792668;80;22267;-81
2020/12/30 02:07:17;;;;;;;10.50;5.30;;;;;;;3.57;100.00;99150.87;1792754;80;20981;-80
2020/12/30 02:09:45;;;;;;;9.58;5.17;;;;;;;3.56;100.00;99147.88;1792087;80;21457;-82
2020/12/30 02:12:13;;;;;;;11.35;5.83;;;;;;;3.58;100.00;99144.89;1792036;80;20938;-78
2020/12/30 02:14:41;;;;;;;12.05;6.35;;;;;;;3.56;100.00;99145.72;1791965;80;21066;-79
2020/12/30 02:17:13;;;;;;;12.03;6.62;;;;;;;3.56;100.00;99149.24;1792056;80;21368;-83
2020/12/30 02:19:42;;;;;;;16.40;6.97;;;;;;;3.58;100.00;99148.97;1792223;80;28164;-80
2020/12/30 02:22:10;;;;;;;10.28;6.72;;;;;;;3.58;100.00;99151.13;1792217;79;21520;-76
2020/12/30 02:24:38;;;;;;;10.78;6.83;;;;;;;3.59;100.00;99151.40;1765748;80;20985;-79
2020/12/30 02:27:05;;;;;;;9.28;5.45;;;;;;;3.60;100.00;99143.52;1792062;80;20965;-81
2020/12/30 02:29:33;;;;;;;10.28;6.40;;;;;;;3.62;100.00;99140.53;1791901;80;21480;-82
2020/12/30 02:32:01;;;;;;;10.30;5.85;;;;;;;3.65;100.00;99133.19;1792133;80;21001;-83
2020/12/30 02:34:29;;;;;;;8.93;5.70;;;;;;;3.67;100.00;99139.69;1792239;80;20977;-80
2020/12/30 02:36:57;;;;;;;8.40;5.17;;;;;;;3.70;100.00;99144.02;1792256;80;20966;-82
2020/12/30 02:39:25;;;;;;;7.47;4.90;;;;;;;3.73;100.00;99149.42;1792208;80;20941;-80
2020/12/30 02:41:53;;;;;;;6.35;4.22;;;;;;;3.75;100.00;99143.98;1792250;80;22674;-81
2020/12/30 02:44:20;;;;;;;6.08;4.40;;;;;;;3.78;100.00;99138.54;1791958;80;20977;-83
2020/12/30 02:46:48;;;;;;;6.37;4.47;;;;;;;3.77;100.00;99141.80;1765867;80;21555;-81
2020/12/30 02:49:16;;;;;;;5.08;3.62;;;;;;;3.78;100.00;99148.05;1791894;80;20934;-80
2020/12/30 02:51:44;;;;;;;6.40;4.30;;;;;;;3.78;100.00;99141.25;1791998;80;20960;-83
2020/12/30 02:54:11;;;;;;;6.87;4.90;;;;;;;3.78;100.00;99138.54;1792057;80;22869;-83
2020/12/30 02:56:40;;;;;;;7.17;4.33;;;;;;;3.77;100.00;99135.56;1793342;78;21047;-83
2020/12/30 02:59:07;;;;;;;7.45;4.95;;;;;;;3.79;100.00;99137.45;1762164;81;21102;-83
2020/12/30 03:01:35;;;;;;;7.45;4.72;;;;;;;3.80;100.00;99134.45;1762078;81;20897;-81
2020/12/30 03:04:03;;;;;;;6.25;4.28;;;;;;;3.84;100.00;99134.70;1761987;81;20944;-80
2020/12/30 03:06:31;;;;;;;8.75;5.67;;;;;;;3.86;100.00;99127.89;1761913;81;23384;-80
2020/12/30 03:08:59;;;;;;;9.00;5.20;;;;;;;3.87;100.00;99128.16;1761910;80;21036;-80
2020/12/30 03:11:27;;;;;;;9.85;6.03;;;;;;;3.90;100.00;99125.43;1762063;81;20992;-79
2020/12/30 03:13:55;;;;;;;8.80;5.33;;;;;;;3.95;100.00;99123.49;1761951;80;20897;-84
2020/12/30 03:16:22;;;;;;;10.72;5.87;;;;;;;4.02;100.00;99119.64;1761982;81;21054;-82
2020/12/30 03:18:52;;;;;;;10.10;5.70;;;;;;;4.09;100.00;99119.56;1761905;81;21175;-81
2020/12/30 03:21:19;;;;;;;10.58;5.65;;;;;;;4.13;100.00;99121.16;1761815;81;20988;-83
2020/12/30 03:23:47;;;;;;;14.18;6.58;;;;;;;4.17;100.00;99116.78;1761942;81;21569;-86
2020/12/30 03:26:15;;;;;;;9.98;6.00;;;;;;;4.20;100.00;99115.67;1761934;81;21055;-85
2020/12/30 03:28:43;;;;;;;8.08;5.55;;;;;;;4.23;100.00;99122.44;1762036;81;20928;-86
2020/12/30 03:31:10;;;;;;;11.83;6.35;;;;;;;4.22;100.00;99125.70;1762109;81;23576;-86
2020/12/30 03:33:38;;;;;;;11.93;6.50;;;;;;;4.17;100.00;99109.99;1762046;81;20983;-85
2020/12/30 03:36:06;;;;;;;12.13;7.33;;;;;;;4.13;100.00;99095.36;1761942;80;20948;-84
2020/12/30 03:38:33;;;;;;;15.90;7.80;;;;;;;4.13;100.00;99102.95;1761919;81;20941;-83
2020/12/30 03:41:01;;;;;;;14.00;7.42;;;;;;;4.17;100.00;99111.34;1762136;81;21098;-86
2020/12/30 03:43:29;;;;;;;9.53;5.80;;;;;;;4.23;100.00;99111.03;1762093;81;22256;-85
2020/12/30 03:45:56;;;;;;;13.40;7.62;;;;;;;4.29;100.00;99100.92;1761892;81;21055;-86
2020/12/30 03:48:24;;;;;;;11.73;6.60;;;;;;;4.33;100.00;99096.54;1761925;80;21502;-80
2020/12/30 03:50:51;;;;;;;11.38;6.55;;;;;;;4.36;100.00;99101.41;1761906;81;20952;-81
2020/12/30 03:53:19;;;;;;;13.58;6.28;;;;;;;4.38;100.00;99097.86;1762074;81;20980;-83
2020/12/30 03:55:46;;;;;;;12.23;6.67;;;;;;;4.39;100.00;99105.46;1762085;81;21186;-82
2020/12/30 03:58:14;;;;;;;11.70;6.67;;;;;;;4.38;100.00;99101.93;1761483;80;20936;-80
2020/12/30 04:00:42;;;;;;;15.72;7.35;;;;;;;4.36;100.00;99102.77;1761402;81;20921;-78
2020/12/30 04:03:09;;;;;;;12.90;7.17;;;;;;;4.36;100.00;99102.77;1761382;80;20956;-78
2020/12/30 04:05:37;;;;;;;14.15;7.40;;;;;;;4.37;100.00;99098.95;1761440;80;21110;-78
2020/12/30 04:08:05;;;;;;;13.60;7.80;;;;;;;4.34;100.00;99088.66;1761450;81;21407;-79
2020/12/30 04:10:33;;;;;;;13.83;8.10;;;;;;;4.33;100.00;99090.30;1761438;81;20936;-81
2020/12/30 04:13:00;;;;;;;13.03;7.40;;;;;;;4.30;100.00;99096.56;1761388;81;21024;-79
2020/12/30 04:15:28;;;;;;;11.78;7.22;;;;;;;4.30;100.00;99091.68;1761325;81;20996;-77
2020/12/30 04:17:55;;;;;;;14.33;7.40;;;;;;;4.28;100.00;99087.08;1752815;79;21077;-81
2020/12/30 04:20:23;;;;;;;13.10;7.05;;;;;;;4.26;100.00;99076.49;1725979;83;21175;-83
2020/12/30 04:22:51;;;;;;;12.73;6.70;;;;;;;4.25;100.00;99069.44;1717722;82;20958;-86
2020/12/30 04:25:19;;;;;;;13.53;7.60;;;;;;;4.24;100.00;99067.00;1720561;83;21001;-87
2020/12/30 04:27:47;;;;;;;15.32;8.40;;;;;;;4.22;100.00;99070.55;1724566;82;21184;-85
2020/12/30 04:30:14;;;;;;;13.75;7.42;;;;;;;4.22;100.00;99071.91;1776828;80;21113;-85
2020/12/30 04:32:42;;;;;;;18.17;9.15;;;;;;;4.22;100.00;99078.70;1755981;81;21277;-83
2020/12/30 04:35:10;;;;;;;15.05;7.78;;;;;;;4.21;100.00;99079.80;1777634;80;21031;-85
2020/12/30 04:37:39;;;;;;;14.70;8.00;;;;;;;4.22;100.00;99081.42;1777091;80;20992;-81
2020/12/30 04:40:07;;;;;;;15.75;8.30;;;;;;;4.21;100.00;99079.80;1776850;80;21649;-83
2020/12/30 04:42:38;;;;;;;17.57;8.63;;;;;;;4.22;100.00;99070.55;1777528;80;20944;-83
2020/12/30 04:45:10;;;;;;;20.15;9.28;;;;;;;4.23;100.00;99073.53;1777707;80;21370;-83
2020/12/30 04:47:39;;;;;;;16.37;9.10;;;;;;;4.25;100.00;99076.23;1777683;80;20996;-79
2020/12/30 04:50:07;;;;;;;19.60;10.43;;;;;;;4.28;100.00;99086.53;1751760;80;21600;-82
2020/12/30 04:52:35;;;;;;;17.32;10.20;;;;;;;4.28;100.00;99087.08;1777520;80;21474;-81
2020/12/30 04:55:02;;;;;;;18.00;9.83;;;;;;;4.30;100.00;99093.04;1756004;81;20898;-80
2020/12/30 04:57:52;;;;;;;18.75;10.85;;;;;;;4.32;100.00;99097.64;1776704;79;23410;-84
2020/12/30 05:00:19;;;;;;;18.67;10.55;;;;;;;4.32;100.00;99097.64;1746546;80;21978;-80
2020/12/30 05:05:26;;;;;;;22.07;10.95;;;;;;;4.37;100.00;99100.86;1882948;76;22731;-81
2020/12/30 05:07:55;;;;;;;21.23;11.35;;;;;;;4.35;100.00;99105.77;1859866;77;21021;-78
2020/12/30 05:10:23;;;;;;;20.08;10.80;;;;;;;4.34;100.00;99105.50;1790835;80;22271;-77
2020/12/30 05:12:53;;;;;;;18.92;11.15;;;;;;;4.34;100.00;99105.50;1790928;80;21572;-78
2020/12/30 05:15:22;;;;;;;18.77;11.25;;;;;;;4.34;100.00;99110.39;1823265;78;20970;-76
2020/12/30 05:17:54;;;;;;;17.25;10.05;;;;;;;4.34;100.00;99110.39;1790698;80;21105;-77
2020/12/30 05:20:24;;;;;;;18.48;10.70;;;;;;;4.35;100.00;99110.66;1790893;80;20930;-78
2020/12/30 05:22:53;;;;;;;15.10;9.65;;;;;;;4.35;100.00;99110.66;1790842;80;21381;-76
2020/12/30 05:25:27;;;;;;;18.32;10.72;;;;;;;4.37;100.00;99113.90;1782196;80;21021;-79
2020/12/30 05:27:55;;;;;;;14.85;9.28;;;;;;;4.33;100.00;99107.41;1790916;80;20943;-79
2020/12/30 05:30:23;;;;;;;14.70;9.25;;;;;;;4.37;100.00;99128.03;1727774;80;20895;-80
2020/12/30 05:32:55;;;;;;;13.62;8.38;;;;;;;4.37;100.00;99128.03;1782268;80;21065;-79
2020/12/30 05:35:22;;;;;;;21.70;10.80;;;;;;;4.37;100.00;99126.67;1753015;80;21434;-78
2020/12/30 05:37:50;;;;;;;19.15;10.38;;;;;;;4.36;100.00;99117.71;1790839;80;21517;-79
2020/12/30 05:40:31;;;;;;;14.38;9.05;;;;;;;4.38;100.00;99122.86;1790953;80;20880;-78
2020/12/30 05:43:16;;;;;;;14.30;9.90;;;;;;;4.37;100.00;99126.67;1793731;80;21606;-82
2020/12/30 05:45:47;;;;;;;16.65;9.98;;;;;;;4.36;100.00;99138.09;1778068;80;21077;-81
2020/12/30 05:48:15;;;;;;;15.00;9.43;;;;;;;4.36;100.00;99129.94;1779453;80;22348;-90
2020/12/30 05:50:56;;;;;;;14.80;9.48;;;;;;;4.37;100.00;99131.56;1779396;80;20962;-80
2020/12/30 05:53:24;;;;;;;12.60;8.05;;;;;;;4.38;100.00;99120.95;1779322;80;21053;-75
2020/12/30 05:56:09;;;;;;;13.48;8.78;;;;;;;4.40;100.00;99134.27;1779461;80;21493;-80
2020/12/30 05:58:43;;;;;;;14.23;8.68;;;;;;;4.38;100.00;99135.91;1779586;80;21463;-79
2020/12/30 06:01:27;;;;;;;12.30;8.13;;;;;;;4.38;100.00;99131.83;1779525;80;21557;-78
2020/12/30 06:03:55;;;;;;;14.87;9.45;;;;;;;4.37;100.00;99127.48;1779136;80;21026;-80
2020/12/30 06:06:25;;;;;;;15.20;8.93;;;;;;;4.36;100.00;99127.22;1758842;80;20942;-79
2020/12/30 06:08:53;;;;;;;13.45;8.80;;;;;;;4.37;100.00;99128.03;1681199;82;21080;-81
2020/12/30 06:11:24;;;;;;;16.07;9.85;;;;;;;4.36;100.00;99123.70;1733117;82;21555;-72
2020/12/30 06:13:54;;;;;;;15.30;9.63;;;;;;;4.35;100.00;99122.88;1733019;82;21423;-70
2020/12/30 06:16:27;;;;;;;15.63;9.25;;;;;;;4.35;100.00;99120.72;1732599;82;21591;-71
2020/12/30 06:18:56;;;;;;;14.90;8.90;;;;;;;4.34;100.00;99117.73;1704935;82;20962;-74
2020/12/30 06:21:24;;;;;;;13.80;8.80;;;;;;;4.35;100.00;99104.41;1732398;82;20933;-70
2020/12/30 06:23:55;;;;;;;17.12;10.15;;;;;;;4.34;100.00;99102.23;1732444;82;20982;-74
2020/12/30 06:26:29;;;;;;;16.25;8.45;;;;;;;4.34;100.00;99100.88;1748362;82;21089;-71
2020/12/30 06:28:57;;;;;;;15.90;9.53;;;;;;;4.32;100.00;99099.00;1716953;82;21504;-75
2020/12/30 06:31:24;;;;;;;15.13;9.38;;;;;;;4.32;100.00;99099.00;1740336;82;20958;-71
2020/12/30 06:33:56;;;;;;;17.67;9.93;;;;;;;4.35;100.00;99097.61;1740315;82;21159;-74
2020/12/30 06:36:24;;;;;;;15.57;9.63;;;;;;;4.35;100.00;99098.97;1740629;82;20930;-78
2020/12/30 06:38:52;;;;;;;15.72;9.70;;;;;;;4.35;100.00;99099.78;1740315;82;21437;-72
2020/12/30 06:41:19;;;;;;;17.20;9.88;;;;;;;4.35;100.00;99094.35;1740214;82;20954;-74
2020/12/30 06:43:50;;;;;;;11.75;8.25;;;;;;;4.37;100.00;99089.44;1740279;82;20902;-74
2020/12/30 06:46:28;;;;;;;13.30;9.33;;;;;;;4.35;100.00;99102.50;1740364;82;20997;-76
2020/12/30 06:49:00;;;;;;;15.15;10.05;;;;;;;4.31;100.00;99091.94;1739919;82;20954;-74
2020/12/30 06:51:40;;;;;;;23.20;10.08;;;;;;;4.31;100.00;99091.94;1718784;82;22228;-75
2020/12/30 06:54:08;;;;;;;14.85;8.63;;;;;;;4.28;100.00;99096.03;1684403;82;21202;-73
2020/12/30 06:56:44;;;;;;;12.93;7.50;;;;;;;4.28;100.00;99104.73;1740262;82;20937;-72
2020/12/30 06:59:17;;;;;;;13.10;8.25;;;;;;;4.28;100.00;99099.30;1740335;82;21619;-75
2020/12/30 07:01:57;;;;;;;14.20;9.08;;;;;;;4.29;100.00;99106.36;1740366;82;21064;-77
2020/12/30 07:04:30;;;;;;;14.98;9.03;;;;;;;4.31;100.00;99113.13;1746026;81;21417;-75
2020/12/30 07:06:59;;;;;;;16.10;11.05;;;;;;;4.34;100.00;99109.03;1759640;81;21015;-73
2020/12/30 07:09:36;;;;;;;17.15;10.20;;;;;;;4.36;100.00;99117.71;1759737;81;20935;-78
2020/12/30 07:12:08;;;;;;;18.65;11.30;;;;;;;4.39;100.00;99121.77;1759747;81;21062;-78
2020/12/30 07:14:37;;;;;;;18.62;12.60;;;;;;;4.41;100.00;99123.11;1759838;81;20963;-79
2020/12/30 07:17:08;;;;;;;21.57;14.03;;;;;;;4.43;100.00;99123.63;1759740;81;21094;-78
2020/12/30 07:19:38;;;;;;;19.55;12.82;;;;;;;4.43;100.00;99123.63;1760041;81;20942;-77
2020/12/30 07:22:09;;;;;;;23.18;14.78;;;;;;;4.44;100.00;99135.31;1759771;81;21503;-82
2020/12/30 07:24:55;;;;;;;18.62;12.20;;;;;;;4.45;100.00;99136.39;1759738;81;21078;-90
2020/12/30 07:27:28;;;;;;;23.25;13.35;;;;;;;4.46;100.00;99138.01;1737104;81;21070;-84
2020/12/30 07:29:56;;;;;;;19.92;12.85;;;;;;;4.47;100.00;99125.23;1760224;81;21151;-75
2020/12/30 07:32:24;;;;;;;20.43;13.45;;;;;;;4.45;100.00;99129.59;1759651;81;20955;-74
2020/12/30 07:34:52;;;;;;;29.30;20.70;;;;;;;4.46;100.00;99129.86;1759733;81;20999;-75
2020/12/30 07:37:21;;;;;;;28.25;20.20;;;;;;;4.49;100.00;99138.80;1759580;81;21613;-73
2020/12/30 07:39:49;;;;;;;24.67;15.30;;;;;;;4.49;100.00;99132.00;1735814;81;21232;-79
2020/12/30 07:42:23;;;;;;;25.50;14.33;;;;;;;4.49;100.00;99142.06;1759704;81;21458;-74
2020/12/30 07:44:52;;;;;;;22.15;15.25;;;;;;;4.50;100.00;99146.41;1759595;81;20971;-74
2020/12/30 07:47:22;;;;;;;21.27;14.90;;;;;;;4.51;100.00;99144.76;1759748;81;21565;-72
2020/12/30 07:49:50;;;;;;;19.52;12.15;;;;;;;4.51;100.00;99144.76;1764522;80;21570;-75
2020/12/30 07:52:17;;;;;;;20.70;12.35;;;;;;;4.54;100.00;99136.03;1763387;81;21001;-73
2020/12/30 07:54:45;;;;;;;22.40;13.70;;;;;;;4.55;100.00;99131.41;1781756;79;21368;-74
2020/12/30 07:57:13;;;;;;;22.05;11.50;;;;;;;4.59;100.00;99144.14;1776306;79;21035;-73
2020/12/30 07:59:46;;;;;;;21.75;10.88;;;;;;;4.59;100.00;99144.14;1778689;79;21009;-75
2020/12/30 08:02:18;;;;;;;19.73;11.15;;;;;;;4.61;100.00;99139.78;1763571;79;20883;-76
2020/12/30 08:04:47;;;;;;;25.70;11.33;;;;;;;4.61;100.00;99131.63;1791346;79;21522;-78
2020/12/30 08:07:16;;;;;;;19.50;10.93;;;;;;;4.62;100.00;99131.89;1779917;80;21196;-76
2020/12/30 08:09:45;;;;;;;20.85;11.25;;;;;;;4.60;100.00;99129.45;1761728;81;20934;-78
2020/12/30 08:12:14;;;;;;;18.87;10.10;;;;;;;4.62;100.00;99136.74;1758415;81;20993;-74
2020/12/30 08:14:44;;;;;;;19.02;11.55;;;;;;;4.62;100.00;99123.73;1757718;81;20985;-75
2020/12/30 08:17:13;;;;;;;29.37;18.92;;;;;;;4.62;100.00;99134.60;1765945;80;21611;-76
2020/12/30 08:19:49;;;;;;;26.73;17.02;;;;;;;4.62;100.00;99134.60;1783254;80;21357;-73
2020/12/30 08:22:19;;;;;;;27.42;14.87;;;;;;;4.66;100.00;99142.42;1787203;80;20962;-72
2020/12/30 08:24:51;;;;;;;21.12;11.12;;;;;;;4.68;100.00;99145.66;1786904;80;21037;-73
2020/12/30 08:27:22;;;;;;;22.60;12.43;;;;;;;4.70;100.00;99148.09;1758834;80;21053;-72
2020/12/30 08:29:52;;;;;;;22.40;12.47;;;;;;;4.70;100.00;99145.38;1783348;80;20982;-78
2020/12/30 08:32:34;;;;;;;22.93;11.65;;;;;;;4.72;100.00;99139.10;1788339;80;21372;-80
2020/12/30 08:35:17;;;;;;;24.02;11.33;;;;;;;4.73;100.00;99133.38;1787135;80;21151;-81
2020/12/30 08:38:06;;;;;;;21.48;12.82;;;;;;;4.73;100.00;99128.48;1787946;80;21493;-77
2020/12/30 08:40:35;;;;;;;24.82;13.65;;;;;;;4.72;100.00;99128.23;1778907;79;20926;-82
2020/12/30 08:43:44;;;;;;;21.55;13.38;;;;;;;4.72;100.00;99128.23;1773143;79;21121;-81
2020/12/30 08:46:20;;;;;;;23.27;12.65;;;;;;;4.72;100.00;99121.43;1756121;81;21804;-80
2020/12/30 08:48:50;;;;;;;26.20;14.00;;;;;;;4.73;100.00;99123.05;1756151;81;20942;-79
2020/12/30 08:51:34;;;;;;;34.00;23.45;;;;;;;4.75;100.00;99127.66;1756223;81;20939;-79
2020/12/30 08:54:02;;;;;;;34.60;22.07;;;;;;;4.74;100.00;99122.77;1764559;81;21140;-80
2020/12/30 08:56:33;;;;;;;31.25;19.42;;;;;;;4.75;100.00;99118.95;1729014;81;21034;-77
2020/12/30 08:59:00;;;;;;;34.75;21.37;;;;;;;4.78;100.00;99113.48;1763817;81;21875;-79
2020/12/30 09:01:31;;;;;;;30.82;19.55;;;;;;;4.80;100.00;99107.20;1756148;81;20949;-79
2020/12/30 09:04:11;;;;;;;30.23;19.52;;;;;;;4.82;100.00;99107.18;1765544;80;21030;-77
2020/12/30 09:06:39;;;;;;;26.52;16.05;;;;;;;4.84;100.00;99105.53;1785608;80;21132;-78
2020/12/30 09:09:14;;;;;;;25.55;13.78;;;;;;;4.85;100.00;99113.41;1788206;80;20930;-82
2020/12/30 09:11:47;;;;;;;23.62;13.55;;;;;;;4.86;100.00;99111.49;1796164;80;22067;-81
2020/12/30 09:14:20;;;;;;;37.85;15.48;;;;;;;4.88;100.00;99103.86;1787604;80;20954;-80
2020/12/30 09:17:01;;;;;;;35.25;19.77;;;;;;;4.94;100.00;99089.09;1787456;80;20891;-84
2020/12/30 09:19:28;;;;;;;26.30;15.90;;;;;;;4.97;100.00;99094.77;1778393;80;21681;-79
2020/12/30 09:22:08;;;;;;;27.58;15.95;;;;;;;4.98;100.00;99096.95;1773829;80;21556;-80
2020/12/30 09:24:39;;;;;;;27.35;16.23;;;;;;;4.99;100.00;99095.84;1787434;80;21265;-80
2020/12/30 09:27:20;;;;;;;32.23;17.42;;;;;;;4.99;100.00;99095.84;1787154;80;20958;-79
2020/12/30 09:30:14;;;;;;;30.17;17.57;;;;;;;4.98;100.00;99086.06;1787619;80;21276;-82
2020/12/30 09:32:44;;;;;;;29.23;16.32;;;;;;;4.96;100.00;99086.35;1787413;80;21065;-83
2020/12/30 09:35:14;;;;;;;26.35;15.15;;;;;;;4.95;100.00;99086.09;1787532;80;21153;-83
2020/12/30 09:37:53;;;;;;;27.90;15.90;;;;;;;4.97;100.00;99088.52;1787669;80;22256;-81
2020/12/30 09:40:20;;;;;;;31.40;16.82;;;;;;;4.99;100.00;99090.41;1786944;79;21148;-82
2020/12/30 09:42:48;;;;;;;33.18;17.37;;;;;;;5.01;100.00;99088.75;1787784;80;21493;-82
2020/12/30 09:45:20;;;;;;;30.23;17.23;;;;;;;5.03;100.00;99084.64;1787332;80;20934;-82
2020/12/30 09:47:48;;;;;;;23.87;14.87;;;;;;;5.03;100.00;99084.64;1787434;80;21453;-81
2020/12/30 09:50:19;;;;;;;24.67;14.20;;;;;;;5.03;100.00;99091.99;1787377;80;21167;-83
2020/12/30 09:52:47;;;;;;;25.85;14.28;;;;;;;5.01;100.00;99084.67;1787499;80;20950;-84
2020/12/30 09:55:14;;;;;;;22.13;12.35;;;;;;;5.02;100.00;99093.09;1787605;80;21089;-80
2020/12/30 09:57:43;;;;;;;19.10;11.80;;;;;;;5.02;100.00;99091.73;1787601;80;20947;-80
2020/12/30 10:00:11;;;;;;;21.77;11.20;;;;;;;5.01;100.00;99082.77;1787616;80;20997;-81
2020/12/30 10:02:39;;;;;;;23.98;13.58;;;;;;;5.02;100.00;99081.66;1787520;80;21207;-80
2020/12/30 10:05:06;;;;;;;21.05;12.07;;;;;;;5.09;100.00;99075.32;1786139;80;21068;-83
2020/12/30 10:07:36;;;;;;;21.40;12.15;;;;;;;5.09;100.00;99075.32;1781407;80;21512;-82
2020/12/30 10:10:04;;;;;;;23.87;12.18;;;;;;;5.10;100.00;99078.30;1781677;80;20922;-81
2020/12/30 10:12:37;;;;;;;25.75;14.45;;;;;;;5.07;100.00;99078.87;1781708;80;21146;-78
2020/12/30 10:15:02;;;;;;;23.42;12.40;;;;;;;5.07;100.00;99068.00;1773021;80;21149;-85
2020/12/30 10:17:29;;;;;;;24.77;15.00;;;;;;;5.04;100.00;99059.05;1774471;80;21975;-86
2020/12/30 10:19:57;;;;;;;21.33;13.80;;;;;;;5.08;100.00;99062.81;1733220;81;21042;-85
2020/12/30 10:22:25;;;;;;;24.00;12.47;;;;;;;5.10;100.00;99046.20;1781421;80;21105;-84
2020/12/30 10:24:54;;;;;;;17.00;10.25;;;;;;;5.11;100.00;99045.09;1781540;80;21053;-84
2020/12/30 10:27:22;;;;;;;20.25;10.50;;;;;;;5.12;100.00;99042.09;1782162;80;21425;-87
2020/12/30 10:29:49;;;;;;;19.40;11.33;;;;;;;5.15;100.00;99035.25;1759382;81;21164;-86
2020/12/30 10:32:17;;;;;;;15.40;10.03;;;;;;;5.15;100.00;99036.06;1757729;80;20965;-85
2020/12/30 10:34:45;;;;;;;17.52;10.63;;;;;;;5.15;100.00;99031.98;1781282;80;21647;-84
2020/12/30 10:37:13;;;;;;;19.42;10.50;;;;;;;5.13;100.00;99024.66;1782025;80;20998;-86
2020/12/30 10:39:41;;;;;;;18.62;11.22;;;;;;;5.11;100.00;99025.50;1690170;80;21352;-84
2020/12/30 10:42:09;;;;;;;16.27;9.90;;;;;;;5.13;100.00;99025.21;1781848;80;21037;-77
2020/12/30 10:44:37;;;;;;;17.52;9.70;;;;;;;5.16;100.00;99023.27;1781011;80;21065;-74
2020/12/30 10:47:04;;;;;;;18.52;9.95;;;;;;;5.16;100.00;99028.16;1781398;80;21160;-82
2020/12/30 10:49:32;;;;;;;15.83;9.70;;;;;;;5.17;100.00;99021.61;1781746;80;20931;-73
2020/12/30 10:52:00;;;;;;;22.15;11.25;;;;;;;5.16;100.00;99006.94;1781568;80;21424;-76
2020/12/30 10:54:27;;;;;;;21.65;11.88;;;;;;;5.19;100.00;99005.80;1790062;80;20926;-77
2020/12/30 10:56:55;;;;;;;18.75;11.55;;;;;;;5.20;100.00;99009.33;1790172;80;20930;-74
2020/12/30 10:59:22;;;;;;;19.55;10.82;;;;;;;5.20;100.00;99009.33;1790074;80;20994;-75
2020/12/30 11:01:52;;;;;;;17.15;10.53;;;;;;;5.21;100.00;99009.02;1790404;80;21120;-74
2020/12/30 11:04:21;;;;;;;21.05;11.65;;;;;;;5.23;100.00;99010.89;1790459;80;21890;-79
2020/12/30 11:06:50;;;;;;;20.80;11.45;;;;;;;5.25;100.00;99001.87;1782287;78;21532;-74
2020/12/30 11:09:18;;;;;;;26.48;13.80;;;;;;;5.25;100.00;98997.80;1769457;79;20925;-76
2020/12/30 11:11:48;;;;;;;24.40;12.37;;;;;;;5.24;100.00;98998.09;1751591;82;20922;-76
2020/12/30 11:14:16;;;;;;;17.60;10.38;;;;;;;5.25;100.00;98995.63;1751417;82;21056;-77
2020/12/30 11:16:50;;;;;;;18.77;10.40;;;;;;;5.24;100.00;98992.09;1752608;82;21356;-78
2020/12/30 11:19:18;;;;;;;16.75;10.60;;;;;;;5.26;100.00;98995.88;1752500;79;20949;-80
2020/12/30 11:21:52;;;;;;;22.75;11.53;;;;;;;5.25;100.00;98989.63;1779504;79;21216;-77
2020/12/30 11:24:20;;;;;;;14.87;9.85;;;;;;;5.25;100.00;98995.63;1774667;80;21131;-77
2020/12/30 11:26:49;;;;;;;16.40;9.90;;;;;;;5.25;100.00;98986.91;1762143;80;21142;-76
2020/12/30 11:29:16;;;;;;;15.58;9.60;;;;;;;5.25;100.00;98986.91;1765713;80;21437;-73
2020/12/30 11:31:44;;;;;;;16.00;9.70;;;;;;;5.26;100.00;98983.64;1748502;79;21109;-75
2020/12/30 11:34:11;;;;;;;19.62;10.95;;;;;;;5.28;100.00;98990.41;1741227;80;21168;-77
2020/12/30 11:36:39;;;;;;;16.73;10.50;;;;;;;5.28;100.00;98990.41;1751660;80;21044;-80
2020/12/30 11:39:07;;;;;;;15.88;9.88;;;;;;;5.31;100.00;98987.09;1785101;80;21048;-78